createdAt,value
2024-01-11T08:54:47.999Z,-1.26
2024-01-11T08:57:20.180Z,-1.33
2024-01-11T08:59:52.334Z,-1.34
2024-01-11T09:02:27.387Z,-1.30
2024-01-11T09:04:59.955Z,-1.21
2024-01-11T09:07:33.629Z,-1.35
2024-01-11T09:10:10.022Z,-1.33
2024-01-11T09:12:42.234Z,-1.38
2024-01-11T09:15:23.824Z,-1.43
2024-01-11T15:51:26.549Z,2.67
2024-01-11T15:53:58.636Z,2.68
2024-01-11T15:56:30.812Z,2.74
2024-01-11T15:59:04.713Z,2.77
2024-01-11T16:04:12.268Z,2.76
2024-01-11T16:06:44.701Z,2.78
2024-01-11T16:09:16.940Z,2.79
2024-01-11T16:11:49.895Z,2.81
2024-01-11T16:14:22.041Z,2.83
2024-01-11T16:16:54.270Z,2.84
2024-01-11T16:19:26.608Z,2.84
2024-01-11T16:21:58.944Z,2.85
2024-01-11T16:24:31.674Z,2.85
2024-01-11T16:27:06.090Z,2.84
2024-01-11T16:29:41.137Z,2.86
2024-01-11T16:32:16.308Z,2.89
2024-01-11T16:34:48.489Z,2.84
2024-01-11T16:37:21.665Z,2.86
2024-01-11T16:39:54.300Z,2.86
2024-01-11T16:42:29.795Z,2.85
2024-01-11T16:45:02.064Z,2.84
2024-01-11T16:47:37.581Z,2.86
2024-01-11T16:50:10.290Z,2.87
2024-01-11T16:52:42.612Z,2.91
2024-01-11T16:55:14.791Z,2.95
2024-01-11T16:57:47.072Z,2.97
2024-01-11T17:00:20.599Z,2.97
2024-01-11T17:02:52.927Z,2.97
2024-01-11T17:05:25.531Z,2.96
2024-01-11T17:07:57.759Z,2.93
2024-01-11T17:10:29.877Z,2.92
2024-01-11T17:13:02.308Z,2.94
